Time,TemperatureF,DewpointF,PressureIn,WindDirection,WindDirectionDegrees,WindSpeedMPH,WindSpeedGustMPH,Humidity,HourlyPrecipIn,Conditions,Clouds,dailyrainin,SoftwareType,DateUTC
2013-06-30 07:50:00,76.0,63.0,30.00,WNW,300,8.0,-999.0,63,-99.99,,,-99.99,,2013-06-30 14:50:00,
2013-06-30 08:34:00,76.0,63.0,30.00,WNW,300,8.0,-999.0,63,-99.99,,,-99.99,,2013-06-30 15:34:00,
2013-06-30 08:44:00,76.0,63.0,30.00,WNW,300,8.0,-999.0,63,-99.99,,,-99.99,,2013-06-30 15:44:00,
2013-06-30 08:50:00,79.0,63.0,30.00,NNW,340,5.0,-999.0,58,-99.99,,,-99.99,,2013-06-30 15:50:00,
2013-06-30 09:34:00,79.0,63.0,30.00,NNW,340,5.0,-999.0,58,-99.99,,,-99.99,,2013-06-30 16:34:00,
2013-06-30 09:44:00,79.0,63.0,30.00,NNW,340,5.0,-999.0,58,-99.99,,,-99.99,,2013-06-30 16:44:00,
2013-06-30 09:50:00,83.0,62.0,30.00,NE,40,5.0,-999.0,49,-99.99,,,-99.99,,2013-06-30 16:50:00,
2013-06-30 10:33:00,83.0,62.0,30.00,NE,40,5.0,-999.0,49,-99.99,,,-99.99,,2013-06-30 17:33:00,
2013-06-30 10:43:00,83.0,62.0,30.00,NE,40,5.0,-999.0,49,-99.99,,,-99.99,,2013-06-30 17:43:00,
2013-06-30 10:50:00,86.0,60.0,30.00,North,350,5.0,-999.0,41,-99.99,,,-99.99,,2013-06-30 17:50:00,
2013-06-30 11:34:00,86.0,60.0,30.00,North,350,5.0,-999.0,41,-99.99,,,-99.99,,2013-06-30 18:34:00,
2013-06-30 11:43:00,86.0,60.0,30.00,North,350,5.0,-999.0,41,-99.99,,,-99.99,,2013-06-30 18:43:00,
2013-06-30 11:50:00,89.0,58.0,29.99,NE,50,5.0,-999.0,34,-99.99,,,-99.99,,2013-06-30 18:50:00,
2013-06-30 12:33:00,89.0,58.0,29.99,NE,50,5.0,-999.0,34,-99.99,,,-99.99,,2013-06-30 19:33:00,
2013-06-30 12:43:00,89.0,58.0,29.99,NE,50,5.0,-999.0,34,-99.99,,,-99.99,,2013-06-30 19:43:00,
2013-06-30 13:50:00,95.0,54.0,29.95,NE,40,9.0,-999.0,25,-99.99,,,-99.99,,2013-06-30 20:50:00,
2013-06-30 14:34:00,95.0,54.0,29.95,NE,40,9.0,-999.0,25,-99.99,,,-99.99,,2013-06-30 21:34:00,
2013-06-30 14:42:00,95.0,54.0,29.95,NE,40,9.0,-999.0,25,-99.99,,,-99.99,,2013-06-30 21:42:00,
2013-06-30 22:50:00,85.0,50.0,29.90,NNW,330,5.0,-999.0,30,-99.99,,,-99.99,,2013-07-01 05:50:00,
2013-06-30 23:33:00,85.0,50.0,29.90,NNW,330,5.0,-999.0,30,-99.99,,,-99.99,,2013-07-01 06:33:00,
2013-06-30 23:43:00,85.0,50.0,29.90,NNW,330,5.0,-999.0,30,-99.99,,,-99.99,,2013-07-01 06:43:00,
2013-06-30 23:50:00,79.0,54.0,29.90,NNW,330,7.0,-999.0,42,-99.99,,,-99.99,,2013-07-01 06:50:00,